Philadelphia, PA

4:28 PM EDT on April 28, 2015 (GMT -0400)
Somerton | | Change Station
CLOSE
Current Station
Personal Weather Station
Location: Philadelphia, PA
Elevation: 167 ft
Nearby Weather Stations
Active Advisory: Special Statement

Elev 167 ft 40.13 °N, 75.00 °W | Updated 7 minutes ago

Mostly Cloudy
Mostly Cloudy
70.5 °F
Feels Like 77 °F
N
5.8
Wind Variable Wind from NNE

Today
High -- | Low -- °F
--% Chance of Precip.
Yesterday
High -- | Low -- °F
Precip. -- in
6:04 AM 7:51 PM
Waxing Gibbous, 76% visible
Pressure 29.78 in
Visibility 10.0 miles
Clouds Mostly Cloudy 7500 ft
Heat Index 77 °F
Dew Point 44 °F
Humidity 38%
Rainfall 0.00 in
Snow Depth Not available.
UV 3 out of 12
Pollen 10.70 out of 12
Air Quality Not available.
Flu Activity Sporadic
METAR KPNE 281954Z AUTO 33014G26KT 10SM BKN075 21/02 A2978 RMK AO2 PK WND 35026/1952 SLP082 T02060017 TSNO

More Conditions Fewer Conditions

Pressure 29.78 in
Visibility 10.0 miles
Clouds Mostly Cloudy 7500 ft
Heat Index 77 °F
Dew Point 44 °F
Humidity 38%
Rainfall 0.00 in
Snow Depth Not available.
UV 3 out of 12
Pollen 10.70 out of 12
Air Quality Not available.
Flu Activity Sporadic
METAR KPNE 281954Z AUTO 33014G26KT 10SM BKN075 21/02 A2978 RMK AO2 PK WND 35026/1952 SLP082 T02060017 TSNO

More Conditions Fewer Conditions

10-Day Weather Forecast

Almanac

Astronomy

Apr. 28, 2015 Rise Set
Actual Time
Civil Twilight
Nautical Twilight
Astronomical Twilight
Moon
Length of Visible Light
Length of Day
Tomorrow will be .
, % of the Moon is Illuminated

Today's Extremes

State Highs State Lows

Community

WunderPhotos

Upload Photos

1,817,751 photos uploaded!

WunderBlogs® & News

Nearby

Air Quality

  Air Quality AQ Index Pollutant
Not available.

Snow Depth

Station Depth Elevation

Earthquake Activity

City Distance Mag. Time & Date
Minimum magnitude displayed is 2.5.

Coastal Water Temperatures

Place Temperature

Stations

Nearby Weather Stations

Station Location Temp. Windchill Dew Point Humidity Wind Precip. Elev Updated Type
                   
Special Statement
Statement as of 10:02 AM EDT on April 28, 2015

... An enhanced risk of wildfire spread this afternoon...

Relative humidity levels are forecast to drop between 30 and 35
percent this afternoon in much of our region and a northwest wind
is expected to gust around 20 mph at times. Fine fuels will
continue to dry resulting in an elevated risk of wildfire spread
in much of eastern Pennsylvania, New Jersey, Delaware and
northeastern Maryland this afternoon.

For more information about wildfire danger, burn restrictions and
wildfire prevention and education, please visit your state
forestry or environmental protection web site.


Iovino